createdAt,value
2019-04-04T00:00:03.529Z,49
2019-04-04T00:00:08.038Z,50
2019-04-04T00:00:18.335Z,49
2019-04-04T00:00:22.823Z,51
2019-04-04T00:00:26.188Z,50
2019-04-04T00:00:29.561Z,49
2019-04-04T00:00:32.962Z,48
2019-04-04T00:00:36.448Z,47
2019-04-04T00:00:38.835Z,46
2019-04-04T00:00:43.342Z,47
2019-04-04T00:00:48.055Z,46
2019-04-04T00:00:52.506Z,45
2019-04-04T00:00:56.075Z,48
2019-04-04T00:00:59.453Z,49
2019-04-04T00:01:03.100Z,50
2019-04-04T00:01:06.583Z,49
2019-04-04T00:01:08.920Z,48
2019-04-04T00:01:13.565Z,49
2019-04-04T00:01:17.993Z,48
2019-04-04T00:01:22.633Z,49
2019-04-04T00:01:23.832Z,50
2019-04-04T00:01:26.155Z,49
2019-04-04T00:01:28.447Z,50
2019-04-04T00:01:31.769Z,49
2019-04-04T00:01:32.866Z,50
2019-04-04T00:01:35.160Z,51
2019-04-04T00:01:37.469Z,50
2019-04-04T00:01:42.087Z,49
2019-04-04T00:01:48.096Z,48
2019-04-04T00:01:59.985Z,49
2019-04-04T00:02:02.296Z,50
2019-04-04T00:02:03.530Z,49
2019-04-04T00:02:04.653Z,48
2019-04-04T00:02:08.046Z,49
2019-04-04T00:02:10.379Z,50
2019-04-04T00:02:12.719Z,51
2019-04-04T00:02:22.843Z,50
2019-04-04T00:02:26.902Z,51
2019-04-04T00:02:32.587Z,50
2019-04-04T00:02:34.899Z,51
2019-04-04T00:02:39.406Z,50
2019-04-04T00:02:41.700Z,49
2019-04-04T00:02:50.849Z,48
2019-04-04T00:02:54.304Z,49
2019-04-04T00:02:59.980Z,50
2019-04-04T00:03:03.452Z,51
2019-04-04T00:03:05.785Z,50
2019-04-04T00:03:06.877Z,51
2019-04-04T00:03:11.412Z,50
2019-04-04T00:03:13.693Z,51
2019-04-04T00:03:14.785Z,50
2019-04-04T00:03:15.993Z,49
2019-04-04T00:03:21.998Z,48
2019-04-04T00:03:24.271Z,49
2019-04-04T00:03:25.444Z,48
2019-04-04T00:03:26.565Z,49
2019-04-04T00:03:27.676Z,48
2019-04-04T00:03:29.940Z,49
2019-04-04T00:03:34.462Z,48
2019-04-04T00:03:40.134Z,47
2019-04-04T00:03:42.445Z,48
2019-04-04T00:03:45.907Z,49
2019-04-04T00:03:48.222Z,48
2019-04-04T00:03:57.430Z,49
2019-04-04T00:03:59.725Z,48
2019-04-04T00:04:05.470Z,49
2019-04-04T00:04:07.739Z,50
2019-04-04T00:04:10.045Z,49
2019-04-04T00:04:12.337Z,50
2019-04-04T00:04:15.749Z,49
2019-04-04T00:04:21.767Z,50
2019-04-04T00:04:25.465Z,49
2019-04-04T00:04:26.578Z,50
2019-04-04T00:04:28.908Z,49
2019-04-04T00:04:33.495Z,50
2019-04-04T00:04:34.735Z,49
2019-04-04T00:04:38.539Z,50
2019-04-04T00:04:46.567Z,51
2019-04-04T00:04:48.948Z,52
2019-04-04T00:04:53.604Z,51
2019-04-04T00:04:58.900Z,52
2019-04-04T00:05:02.370Z,51
2019-04-04T00:05:04.706Z,52
2019-04-04T00:05:07.045Z,51
2019-04-04T00:05:25.508Z,50
2019-04-04T00:05:29.558Z,51
2019-04-04T00:05:31.828Z,50
2019-04-04T00:05:35.268Z,49
2019-04-04T00:05:36.425Z,48
2019-04-04T00:05:38.784Z,49
2019-04-04T00:05:42.200Z,50
2019-04-04T00:05:43.268Z,51
2019-04-04T00:05:47.820Z,50
2019-04-04T00:05:52.387Z,51
2019-04-04T00:05:58.786Z,50
2019-04-04T00:06:02.217Z,49
2019-04-04T00:06:04.477Z,48
2019-04-04T00:06:14.571Z,49
2019-04-04T00:06:15.904Z,50
2019-04-04T00:06:19.365Z,51
2019-04-04T00:06:21.692Z,52
2019-04-04T00:06:25.006Z,51
2019-04-04T00:06:29.275Z,52
2019-04-04T00:06:32.705Z,51
2019-04-04T00:06:35.039Z,52
2019-04-04T00:06:37.333Z,51
2019-04-04T00:06:39.674Z,50
2019-04-04T00:06:43.100Z,49
2019-04-04T00:06:46.518Z,50
2019-04-04T00:06:49.850Z,49
2019-04-04T00:06:57.668Z,48
2019-04-04T00:07:01.358Z,49
2019-04-04T00:07:04.859Z,50
2019-04-04T00:07:08.192Z,49
2019-04-04T00:07:11.565Z,50
2019-04-04T00:07:13.847Z,51
2019-04-04T00:07:20.701Z,49
2019-04-04T00:07:23.037Z,47
2019-04-04T00:07:30.922Z,49
2019-04-04T00:07:33.202Z,48
2019-04-04T00:07:35.484Z,47
2019-04-04T00:07:41.213Z,46
2019-04-04T00:07:43.567Z,47
2019-04-04T00:07:44.691Z,48
2019-04-04T00:07:47.021Z,47
2019-04-04T00:07:48.168Z,48
2019-04-04T00:07:51.648Z,50
2019-04-04T00:07:53.987Z,51
2019-04-04T00:08:02.074Z,52
2019-04-04T00:08:08.754Z,53
2019-04-04T00:08:15.438Z,51
2019-04-04T00:08:17.898Z,52
2019-04-04T00:08:22.470Z,51
2019-04-04T00:08:24.816Z,50
2019-04-04T00:08:37.723Z,51
2019-04-04T00:08:41.180Z,50
2019-04-04T00:08:44.834Z,51
2019-04-04T00:08:48.265Z,52
2019-04-04T00:08:51.714Z,51
2019-04-04T00:08:56.133Z,50
2019-04-04T00:09:05.112Z,49
2019-04-04T00:09:06.299Z,48
2019-04-04T00:09:08.602Z,49
2019-04-04T00:09:09.705Z,48
2019-04-04T00:09:13.127Z,49
2019-04-04T00:09:17.683Z,48
2019-04-04T00:09:24.465Z,49
2019-04-04T00:09:25.690Z,50
2019-04-04T00:09:29.237Z,49
2019-04-04T00:09:31.153Z,50
2019-04-04T00:09:35.291Z,49
2019-04-04T00:09:39.872Z,50
2019-04-04T00:09:42.203Z,51
2019-04-04T00:09:44.515Z,50
2019-04-04T00:09:51.437Z,51
2019-04-04T00:09:59.322Z,50
2019-04-04T00:10:05.929Z,51
2019-04-04T00:10:08.207Z,50
2019-04-04T00:10:12.607Z,52
2019-04-04T00:10:14.919Z,51
2019-04-04T00:10:17.173Z,50
2019-04-04T00:10:20.498Z,49
2019-04-04T00:10:26.087Z,50
2019-04-04T00:10:28.618Z,49
2019-04-04T00:10:32.804Z,50
2019-04-04T00:10:35.750Z,51
2019-04-04T00:10:40.422Z,52
2019-04-04T00:10:43.918Z,51
2019-04-04T00:10:50.653Z,50
2019-04-04T00:10:54.107Z,49
2019-04-04T00:10:57.582Z,50
2019-04-04T00:11:01.010Z,49
2019-04-04T00:11:06.962Z,50
2019-04-04T00:11:09.282Z,51
2019-04-04T00:11:13.915Z,52
2019-04-04T00:11:20.770Z,51
2019-04-04T00:11:25.558Z,49
2019-04-04T00:11:30.084Z,51
2019-04-04T00:11:37.858Z,52
2019-04-04T00:11:40.197Z,53
2019-04-04T00:11:43.639Z,52
2019-04-04T00:11:47.034Z,51
2019-04-04T00:11:49.374Z,52
2019-04-04T00:11:55.110Z,53
2019-04-04T00:11:56.289Z,54
2019-04-04T00:11:58.904Z,55
2019-04-04T00:12:01.211Z,56
2019-04-04T00:12:03.418Z,55
2019-04-04T00:12:11.139Z,49
2019-04-04T00:12:17.804Z,50
2019-04-04T00:12:23.482Z,51
2019-04-04T00:12:26.926Z,52
2019-04-04T00:12:29.275Z,51
2019-04-04T00:12:31.589Z,52
2019-04-04T00:12:34.134Z,51
2019-04-04T00:12:36.944Z,52
2019-04-04T00:12:41.281Z,51
2019-04-04T00:12:45.538Z,52
2019-04-04T00:12:50.138Z,51
2019-04-04T00:12:54.709Z,50
2019-04-04T00:12:57.916Z,49
2019-04-04T00:12:59.302Z,50
2019-04-04T00:13:01.942Z,49
2019-04-04T00:13:09.195Z,50
2019-04-04T00:13:25.455Z,51
2019-04-04T00:13:30.212Z,50
2019-04-04T00:13:33.588Z,53
2019-04-04T00:13:35.986Z,52
2019-04-04T00:13:40.002Z,51
2019-04-04T00:13:45.287Z,50
2019-04-04T00:13:48.738Z,49
2019-04-04T00:13:52.035Z,48
2019-04-04T00:13:56.582Z,49
2019-04-04T00:14:01.084Z,50
2019-04-04T00:14:03.405Z,47
2019-04-04T00:14:12.622Z,48
2019-04-04T00:14:16.409Z,49
2019-04-04T00:14:19.833Z,51
2019-04-04T00:14:22.228Z,50
2019-04-04T00:14:25.744Z,51
2019-04-04T00:14:29.192Z,50
2019-04-04T00:14:33.726Z,51
2019-04-04T00:14:36.007Z,50
2019-04-04T00:14:43.463Z,51
2019-04-04T00:14:46.695Z,50
2019-04-04T00:14:49.021Z,49
2019-04-04T00:14:53.636Z,47
2019-04-04T00:15:01.505Z,49
2019-04-04T00:15:03.838Z,51
2019-04-04T00:15:09.539Z,50
2019-04-04T00:15:16.767Z,51
2019-04-04T00:15:19.348Z,50
2019-04-04T00:15:20.587Z,51
2019-04-04T00:15:22.833Z,50
2019-04-04T00:15:29.491Z,52
2019-04-04T00:15:32.779Z,53
2019-04-04T00:15:33.918Z,52
2019-04-04T00:15:37.340Z,51
2019-04-04T00:15:41.883Z,52
2019-04-04T00:15:46.560Z,51
2019-04-04T00:15:50.011Z,50
2019-04-04T00:15:53.448Z,52
2019-04-04T00:15:55.771Z,51
2019-04-04T00:15:56.997Z,50
2019-04-04T00:16:00.363Z,49
2019-04-04T00:16:03.815Z,50
2019-04-04T00:16:06.158Z,51
2019-04-04T00:16:08.494Z,50
2019-04-04T00:16:11.839Z,49
2019-04-04T00:16:19.221Z,50
2019-04-04T00:16:24.882Z,49
2019-04-04T00:16:27.227Z,50
2019-04-04T00:16:29.536Z,49
2019-04-04T00:16:31.816Z,51
2019-04-04T00:16:36.363Z,50
2019-04-04T00:16:41.867Z,51
2019-04-04T00:16:46.716Z,52
2019-04-04T00:16:52.934Z,51
2019-04-04T00:16:57.437Z,50
2019-04-04T00:16:59.779Z,49
2019-04-04T00:17:00.963Z,50
2019-04-04T00:17:02.075Z,49
2019-04-04T00:17:07.747Z,48
2019-04-04T00:17:11.094Z,50
2019-04-04T00:17:16.829Z,49
2019-04-04T00:17:19.188Z,50
2019-04-04T00:17:24.194Z,51
2019-04-04T00:17:26.542Z,50
2019-04-04T00:17:30.077Z,51
2019-04-04T00:17:33.566Z,50
2019-04-04T00:17:36.905Z,52
2019-04-04T00:17:40.288Z,51
2019-04-04T00:17:42.609Z,52
2019-04-04T00:17:46.044Z,51
2019-04-04T00:17:48.646Z,52
2019-04-04T00:17:49.798Z,53
2019-04-04T00:17:57.028Z,52
2019-04-04T00:18:00.433Z,51
2019-04-04T00:18:01.626Z,52
2019-04-04T00:18:03.895Z,51
2019-04-04T00:18:06.101Z,52
2019-04-04T00:18:08.447Z,51
2019-04-04T00:18:11.881Z,50
2019-04-04T00:18:16.414Z,49
2019-04-04T00:18:18.676Z,50
2019-04-04T00:18:19.820Z,49
2019-04-04T00:18:29.440Z,50
2019-04-04T00:18:33.968Z,49
2019-04-04T00:18:36.323Z,48
2019-04-04T00:18:39.747Z,49
2019-04-04T00:18:42.029Z,50
2019-04-04T00:18:44.323Z,49
2019-04-04T00:18:46.578Z,50
2019-04-04T00:18:50.109Z,51
2019-04-04T00:18:53.570Z,50
2019-04-04T00:18:58.351Z,49
2019-04-04T00:19:00.824Z,50
2019-04-04T00:19:04.239Z,49
2019-04-04T00:19:05.337Z,50
2019-04-04T00:19:08.750Z,51
2019-04-04T00:19:13.106Z,52
2019-04-04T00:19:17.639Z,51
2019-04-04T00:19:20.023Z,52
2019-04-04T00:19:25.749Z,51
2019-04-04T00:19:31.877Z,50
2019-04-04T00:19:33.032Z,51
2019-04-04T00:19:35.301Z,50
2019-04-04T00:19:38.668Z,49
2019-04-04T00:19:43.313Z,48
2019-04-04T00:19:47.880Z,49
2019-04-04T00:19:50.207Z,50
2019-04-04T00:19:53.715Z,48
2019-04-04T00:19:58.939Z,49
2019-04-04T00:20:04.220Z,51
2019-04-04T00:20:06.609Z,50
2019-04-04T00:20:13.228Z,49
2019-04-04T00:20:15.661Z,50
2019-04-04T00:20:22.416Z,47
2019-04-04T00:21:02.678Z,51
2019-04-04T00:21:05.590Z,50
2019-04-04T00:21:12.406Z,49
2019-04-04T00:21:15.893Z,48
2019-04-04T00:21:18.382Z,49
2019-04-04T00:21:21.895Z,50
2019-04-04T00:21:35.640Z,51
2019-04-04T00:21:37.915Z,50
2019-04-04T00:21:41.380Z,49
2019-04-04T00:21:43.736Z,50
2019-04-04T00:21:47.179Z,49
2019-04-04T00:21:49.502Z,50
2019-04-04T00:21:52.917Z,49
2019-04-04T00:21:54.090Z,50
2019-04-04T00:21:57.531Z,49
2019-04-04T00:22:00.940Z,48
2019-04-04T00:22:07.183Z,49
2019-04-04T00:22:10.616Z,50
2019-04-04T00:22:16.095Z,51
2019-04-04T00:22:18.422Z,52
2019-04-04T00:22:19.593Z,51
2019-04-04T00:22:21.943Z,52
2019-04-04T00:22:24.258Z,51
2019-04-04T00:22:31.132Z,50
2019-04-04T00:22:37.571Z,49
2019-04-04T00:22:39.842Z,50
2019-04-04T00:22:48.875Z,51
2019-04-04T00:22:51.744Z,52
2019-04-04T00:22:55.117Z,51
2019-04-04T00:22:57.389Z,52
2019-04-04T00:23:00.746Z,51
2019-04-04T00:23:01.979Z,52
2019-04-04T00:23:03.067Z,51
2019-04-04T00:23:04.975Z,50
2019-04-04T00:23:10.092Z,51
2019-04-04T00:23:13.508Z,50
2019-04-04T00:23:18.053Z,49
2019-04-04T00:23:21.503Z,48
2019-04-04T00:23:22.746Z,49
2019-04-04T00:23:25.102Z,48
2019-04-04T00:23:27.288Z,49
2019-04-04T00:23:30.665Z,50
2019-04-04T00:23:39.054Z,51
2019-04-04T00:23:42.429Z,52
2019-04-04T00:23:43.584Z,51
2019-04-04T00:23:47.993Z,50
2019-04-04T00:23:51.576Z,49
2019-04-04T00:23:55.023Z,48
2019-04-04T00:23:56.215Z,49
2019-04-04T00:23:59.674Z,50
2019-04-04T00:24:03.078Z,51
2019-04-04T00:24:09.954Z,52
2019-04-04T00:24:14.427Z,50
2019-04-04T00:24:17.866Z,52
2019-04-04T00:24:21.364Z,51
2019-04-04T00:24:25.944Z,50
2019-04-04T00:24:28.225Z,49
2019-04-04T00:24:30.582Z,50
2019-04-04T00:24:32.866Z,51
2019-04-04T00:24:39.290Z,52
2019-04-04T00:24:41.793Z,51
2019-04-04T00:24:45.262Z,50
2019-04-04T00:24:46.480Z,51
2019-04-04T00:24:49.965Z,52
2019-04-04T00:24:55.602Z,51
2019-04-04T00:25:02.427Z,50
2019-04-04T00:25:04.717Z,49
2019-04-04T00:25:12.177Z,50
2019-04-04T00:25:17.805Z,51
2019-04-04T00:25:21.282Z,52
2019-04-04T00:25:23.591Z,53
2019-04-04T00:25:25.913Z,52
2019-04-04T00:25:30.427Z,53
2019-04-04T00:25:36.130Z,52
2019-04-04T00:25:41.479Z,51
2019-04-04T00:25:46.039Z,49
2019-04-04T00:25:49.469Z,51
2019-04-04T00:25:51.814Z,50
2019-04-04T00:25:53.052Z,52
2019-04-04T00:25:57.681Z,53
2019-04-04T00:26:02.210Z,52
2019-04-04T00:26:05.683Z,53
2019-04-04T00:26:11.785Z,51
2019-04-04T00:26:16.312Z,50
2019-04-04T00:26:26.535Z,51
2019-04-04T00:26:28.800Z,50
2019-04-04T00:26:32.298Z,51
2019-04-04T00:26:34.574Z,50
2019-04-04T00:26:35.715Z,51
2019-04-04T00:26:37.004Z,50
2019-04-04T00:26:41.561Z,49
2019-04-04T00:26:44.132Z,50
2019-04-04T00:26:46.496Z,51
2019-04-04T00:26:49.890Z,50
2019-04-04T00:26:52.170Z,51
2019-04-04T00:26:53.497Z,50
2019-04-04T00:26:56.941Z,51
2019-04-04T00:27:01.460Z,50
2019-04-04T00:27:03.799Z,51
2019-04-04T00:27:06.081Z,50
2019-04-04T00:27:11.159Z,49
2019-04-04T00:27:19.941Z,50
2019-04-04T00:27:31.113Z,51
2019-04-04T00:27:45.040Z,52
2019-04-04T00:27:56.244Z,51
2019-04-04T00:27:58.601Z,50
2019-04-04T00:28:00.908Z,49
2019-04-04T00:28:04.361Z,50
2019-04-04T00:28:10.008Z,51
2019-04-04T00:28:17.027Z,52
2019-04-04T00:28:20.534Z,53
2019-04-04T00:28:25.036Z,52
2019-04-04T00:28:30.654Z,50
2019-04-04T00:28:35.182Z,51
2019-04-04T00:28:42.064Z,52
2019-04-04T00:28:47.012Z,51
2019-04-04T00:28:51.793Z,52
2019-04-04T00:28:55.123Z,53
2019-04-04T00:29:01.103Z,52
2019-04-04T00:29:04.884Z,51
2019-04-04T00:29:19.295Z,52
2019-04-04T00:29:23.880Z,51
2019-04-04T00:29:29.451Z,50
2019-04-04T00:29:31.735Z,49
2019-04-04T00:29:34.110Z,48
2019-04-04T00:29:37.441Z,49
2019-04-04T00:29:39.695Z,50
2019-04-04T00:29:45.984Z,51
2019-04-04T00:29:49.036Z,50
2019-04-04T00:29:52.461Z,49
2019-04-04T00:29:56.930Z,48
2019-04-04T00:29:59.229Z,47
2019-04-04T00:30:01.502Z,48
2019-04-04T00:30:03.778Z,49
2019-04-04T00:30:05.986Z,50
2019-04-04T00:30:09.356Z,49
2019-04-04T00:30:13.873Z,50
2019-04-04T00:30:20.058Z,49
2019-04-04T00:30:23.527Z,48
2019-04-04T00:30:28.032Z,49
2019-04-04T00:30:31.419Z,47
2019-04-04T00:30:37.237Z,48
2019-04-04T00:30:40.732Z,47
2019-04-04T00:30:44.198Z,48
2019-04-04T00:30:49.442Z,49
2019-04-04T00:30:51.703Z,51
2019-04-04T00:30:56.229Z,50
2019-04-04T00:30:59.653Z,51
2019-04-04T00:31:03.111Z,50
2019-04-04T00:31:04.285Z,51
2019-04-04T00:31:06.654Z,50
2019-04-04T00:31:08.886Z,51
2019-04-04T00:31:12.250Z,52
2019-04-04T00:31:14.575Z,51
2019-04-04T00:31:20.195Z,52
2019-04-04T00:31:22.619Z,53
2019-04-04T00:31:24.971Z,52
2019-04-04T00:31:30.803Z,51
2019-04-04T00:31:35.416Z,50
2019-04-04T00:31:37.825Z,49
2019-04-04T00:31:40.204Z,48
2019-04-04T00:31:43.638Z,49
2019-04-04T00:31:56.587Z,50
2019-04-04T00:32:04.511Z,51
2019-04-04T00:32:12.678Z,50
2019-04-04T00:32:16.115Z,49
2019-04-04T00:32:21.972Z,48
2019-04-04T00:32:24.265Z,49
2019-04-04T00:32:26.632Z,50
2019-04-04T00:32:30.105Z,49
2019-04-04T00:32:33.640Z,48
2019-04-04T00:32:38.234Z,49
2019-04-04T00:32:40.603Z,48
2019-04-04T00:32:43.013Z,49
2019-04-04T00:32:46.495Z,47
2019-04-04T00:32:53.669Z,48
2019-04-04T00:32:58.341Z,47
2019-04-04T00:33:01.877Z,48
2019-04-04T00:33:06.489Z,49
2019-04-04T00:33:09.991Z,50
2019-04-04T00:33:13.525Z,49
2019-04-04T00:33:18.076Z,50
2019-04-04T00:33:23.792Z,48
2019-04-04T00:33:29.233Z,49
2019-04-04T00:33:32.803Z,48
2019-04-04T00:33:33.978Z,47
2019-04-04T00:33:37.537Z,48
2019-04-04T00:33:39.854Z,49
2019-04-04T00:33:42.167Z,48
2019-04-04T00:33:45.687Z,47
2019-04-04T00:33:50.359Z,48
2019-04-04T00:33:59.216Z,47
2019-04-04T00:34:02.791Z,48
2019-04-04T00:34:05.131Z,49
2019-04-04T00:34:08.573Z,50
2019-04-04T00:34:13.534Z,51
2019-04-04T00:34:18.327Z,52
2019-04-04T00:34:20.636Z,51
2019-04-04T00:34:22.955Z,52
2019-04-04T00:34:36.055Z,50
2019-04-04T00:34:40.900Z,52
2019-04-04T00:34:44.455Z,51
2019-04-04T00:34:46.769Z,50
2019-04-04T00:34:49.141Z,49
2019-04-04T00:34:51.466Z,47
2019-04-04T00:34:53.827Z,48
2019-04-04T00:34:57.759Z,49
2019-04-04T00:35:02.988Z,50
2019-04-04T00:35:07.697Z,49
2019-04-04T00:35:15.773Z,47
2019-04-04T00:35:18.164Z,48
2019-04-04T00:35:20.480Z,47
2019-04-04T00:35:26.198Z,48
2019-04-04T00:35:29.026Z,49
2019-04-04T00:35:33.207Z,48
2019-04-04T00:35:36.702Z,49
2019-04-04T00:35:48.638Z,48
2019-04-04T00:35:53.304Z,49
2019-04-04T00:35:57.894Z,48
2019-04-04T00:36:04.801Z,49
2019-04-04T00:36:07.153Z,50
2019-04-04T00:36:11.718Z,49
2019-04-04T00:36:16.403Z,50
2019-04-04T00:36:19.894Z,49
2019-04-04T00:36:23.417Z,50
2019-04-04T00:36:29.457Z,49
2019-04-04T00:36:40.807Z,50
2019-04-04T00:36:45.482Z,51
2019-04-04T00:36:54.029Z,52
2019-04-04T00:36:57.556Z,51
2019-04-04T00:36:58.779Z,52
2019-04-04T00:37:05.986Z,51
2019-04-04T00:37:08.350Z,52
2019-04-04T00:37:15.200Z,53
2019-04-04T00:37:16.410Z,52
2019-04-04T00:37:20.024Z,51
2019-04-04T00:37:23.582Z,52
2019-04-04T00:37:25.942Z,51
2019-04-04T00:37:27.041Z,52
2019-04-04T00:37:29.391Z,51
2019-04-04T00:37:30.564Z,52
2019-04-04T00:37:36.925Z,51
2019-04-04T00:37:43.411Z,53
2019-04-04T00:37:48.002Z,51
2019-04-04T00:38:00.528Z,52
2019-04-04T00:38:02.929Z,51
2019-04-04T00:38:08.026Z,50
2019-04-04T00:38:11.514Z,49
2019-04-04T00:38:16.180Z,50
2019-04-04T00:38:19.807Z,49
2019-04-04T00:38:25.609Z,48
2019-04-04T00:38:27.962Z,49
2019-04-04T00:38:32.544Z,48
2019-04-04T00:38:36.010Z,49
2019-04-04T00:38:42.514Z,50
2019-04-04T00:38:45.078Z,49
2019-04-04T00:38:48.539Z,50
2019-04-04T00:38:50.802Z,48
2019-04-04T00:38:53.148Z,47
2019-04-04T00:38:56.599Z,48
2019-04-04T00:39:01.229Z,47
2019-04-04T00:39:02.636Z,48
2019-04-04T00:39:10.498Z,47
2019-04-04T00:39:14.054Z,49
2019-04-04T00:39:16.380Z,48
2019-04-04T00:39:18.961Z,49
2019-04-04T00:39:22.371Z,50
2019-04-04T00:39:24.572Z,48
2019-04-04T00:39:28.125Z,49
2019-04-04T00:39:31.562Z,48
2019-04-04T00:39:33.939Z,47
2019-04-04T00:39:37.954Z,48
2019-04-04T00:39:45.532Z,51
2019-04-04T00:39:47.927Z,50
2019-04-04T00:39:50.289Z,51
2019-04-04T00:39:52.632Z,50
2019-04-04T00:39:54.909Z,51
2019-04-04T00:39:57.267Z,52
2019-04-04T00:40:05.170Z,50
2019-04-04T00:40:10.746Z,49
2019-04-04T00:40:13.285Z,50
2019-04-04T00:40:16.838Z,51
2019-04-04T00:40:20.648Z,50
2019-04-04T00:40:24.152Z,49
2019-04-04T00:40:27.684Z,50
2019-04-04T00:40:32.340Z,51
2019-04-04T00:40:36.927Z,50
2019-04-04T00:40:38.172Z,51
2019-04-04T00:40:45.357Z,50
2019-04-04T00:40:48.910Z,51
2019-04-04T00:40:53.520Z,50
2019-04-04T00:40:57.180Z,49
2019-04-04T00:41:02.897Z,50
2019-04-04T00:41:05.329Z,51
2019-04-04T00:41:07.744Z,49
2019-04-04T00:41:10.957Z,50
2019-04-04T00:41:16.196Z,49
2019-04-04T00:41:18.505Z,48
2019-04-04T00:41:22.036Z,49
2019-04-04T00:41:24.316Z,48
2019-04-04T00:41:28.985Z,50
2019-04-04T00:41:34.985Z,49
2019-04-04T00:41:37.354Z,48
2019-04-04T00:41:38.600Z,49
2019-04-04T00:41:41.004Z,50
2019-04-04T00:41:42.960Z,49
2019-04-04T00:41:45.869Z,50
2019-04-04T00:41:49.367Z,51
2019-04-04T00:41:51.832Z,50
2019-04-04T00:41:56.457Z,51
2019-04-04T00:42:03.648Z,52
2019-04-04T00:42:08.215Z,51
2019-04-04T00:42:10.498Z,50
2019-04-04T00:42:14.987Z,49
2019-04-04T00:42:20.349Z,48
2019-04-04T00:42:21.623Z,49
2019-04-04T00:42:26.314Z,48
2019-04-04T00:42:28.667Z,49
2019-04-04T00:42:30.996Z,48
2019-04-04T00:42:35.612Z,50
2019-04-04T00:42:38.226Z,51
2019-04-04T00:42:39.459Z,50
2019-04-04T00:42:42.865Z,51
2019-04-04T00:42:48.775Z,50
2019-04-04T00:42:59.105Z,49
2019-04-04T00:43:03.638Z,50
2019-04-04T00:43:05.953Z,51
2019-04-04T00:43:08.338Z,50
2019-04-04T00:43:09.453Z,51
2019-04-04T00:43:14.071Z,52
2019-04-04T00:43:16.340Z,51
2019-04-04T00:43:26.672Z,52
2019-04-04T00:43:31.336Z,51
2019-04-04T00:43:34.899Z,52
2019-04-04T00:43:38.412Z,50
2019-04-04T00:43:44.124Z,49
2019-04-04T00:43:46.562Z,48
2019-04-04T00:43:54.696Z,50
2019-04-04T00:43:58.217Z,49
2019-04-04T00:44:00.503Z,50
2019-04-04T00:44:02.884Z,51
2019-04-04T00:44:06.317Z,50
2019-04-04T00:44:13.402Z,49
2019-04-04T00:44:16.943Z,50
2019-04-04T00:44:21.014Z,51
2019-04-04T00:44:28.836Z,50
2019-04-04T00:44:31.205Z,51
2019-04-04T00:44:34.779Z,50
2019-04-04T00:44:38.325Z,49
2019-04-04T00:44:41.933Z,50
2019-04-04T00:44:47.684Z,51
2019-04-04T00:44:50.006Z,52
2019-04-04T00:44:59.004Z,51
2019-04-04T00:45:02.618Z,52
2019-04-04T00:45:06.187Z,53
2019-04-04T00:45:13.084Z,52
2019-04-04T00:45:15.430Z,51
2019-04-04T00:45:17.779Z,50
2019-04-04T00:45:22.495Z,52
2019-04-04T00:45:29.868Z,51
2019-04-04T00:45:33.586Z,50
2019-04-04T00:45:38.278Z,49
2019-04-04T00:45:45.136Z,48
2019-04-04T00:45:48.649Z,49
2019-04-04T00:45:51.023Z,48
2019-04-04T00:45:54.426Z,47
2019-04-04T00:45:56.772Z,48
2019-04-04T00:46:04.025Z,49
2019-04-04T00:46:08.806Z,48
2019-04-04T00:46:11.182Z,49
2019-04-04T00:46:13.570Z,50
2019-04-04T00:46:15.919Z,51
2019-04-04T00:46:22.610Z,50
2019-04-04T00:46:26.175Z,49
2019-04-04T00:46:31.857Z,50
2019-04-04T00:46:38.728Z,51
2019-04-04T00:46:42.246Z,50
2019-04-04T00:46:46.802Z,51
2019-04-04T00:46:50.239Z,52
2019-04-04T00:46:56.006Z,51
2019-04-04T00:47:07.584Z,50
2019-04-04T00:47:11.045Z,51
2019-04-04T00:47:14.464Z,50
2019-04-04T00:47:16.834Z,51
2019-04-04T00:47:20.410Z,52
2019-04-04T00:47:23.900Z,51
2019-04-04T00:47:26.342Z,52
2019-04-04T00:47:33.804Z,51
2019-04-04T00:47:37.322Z,52
2019-04-04T00:47:42.183Z,53
2019-04-04T00:47:44.542Z,52
2019-04-04T00:47:49.210Z,53
2019-04-04T00:47:55.111Z,52
2019-04-04T00:47:58.690Z,51
2019-04-04T00:48:05.076Z,52
2019-04-04T00:48:10.801Z,51
2019-04-04T00:48:13.144Z,52
2019-04-04T00:48:24.406Z,51
2019-04-04T00:48:27.986Z,50
2019-04-04T00:48:30.354Z,51
2019-04-04T00:48:36.290Z,50
2019-04-04T00:48:43.144Z,51
2019-04-04T00:48:47.728Z,50
2019-04-04T00:48:49.986Z,49
2019-04-04T00:48:53.462Z,50
2019-04-04T00:48:58.103Z,49
2019-04-04T00:49:08.191Z,50
2019-04-04T00:49:10.562Z,49
2019-04-04T00:49:12.869Z,50
2019-04-04T00:49:15.472Z,51
2019-04-04T00:49:18.986Z,50
2019-04-04T00:49:21.271Z,51
2019-04-04T00:49:24.699Z,50
2019-04-04T00:49:28.227Z,51
2019-04-04T00:49:31.754Z,50
2019-04-04T00:49:38.887Z,49
2019-04-04T00:49:42.432Z,50
2019-04-04T00:49:45.911Z,51
2019-04-04T00:49:50.575Z,50
2019-04-04T00:49:52.961Z,51
2019-04-04T00:49:56.336Z,52
2019-04-04T00:50:02.017Z,51
2019-04-04T00:50:10.123Z,52
2019-04-04T00:50:16.687Z,51
2019-04-04T00:50:24.629Z,50
2019-04-04T00:50:30.321Z,52
2019-04-04T00:50:37.806Z,51
2019-04-04T00:50:42.491Z,52
2019-04-04T00:50:48.134Z,51
2019-04-04T00:50:55.165Z,49
2019-04-04T00:50:58.679Z,50
2019-04-04T00:51:02.265Z,51
2019-04-04T00:51:07.575Z,52
2019-04-04T00:51:12.388Z,51
2019-04-04T00:51:15.905Z,52
2019-04-04T00:51:20.536Z,51
2019-04-04T00:51:24.067Z,52
2019-04-04T00:51:26.391Z,51
2019-04-04T00:51:30.967Z,50
2019-04-04T00:51:33.555Z,49
2019-04-04T00:51:34.913Z,50
2019-04-04T00:51:41.265Z,51
2019-04-04T00:51:45.881Z,50
2019-04-04T00:51:49.412Z,51
2019-04-04T00:51:51.710Z,50
2019-04-04T00:51:55.299Z,51
2019-04-04T00:51:59.958Z,50
2019-04-04T00:52:04.123Z,49
2019-04-04T00:52:09.911Z,50
2019-04-04T00:52:13.742Z,49
2019-04-04T00:52:16.074Z,48
2019-04-04T00:52:19.580Z,49
2019-04-04T00:52:21.979Z,48
2019-04-04T00:52:28.857Z,49
2019-04-04T00:52:32.298Z,48
2019-04-04T00:52:33.525Z,49
2019-04-04T00:52:37.138Z,50
2019-04-04T00:52:43.148Z,49
2019-04-04T00:52:46.801Z,48
2019-04-04T00:52:50.301Z,49
2019-04-04T00:52:52.699Z,48
2019-04-04T00:52:57.304Z,49
2019-04-04T00:52:59.774Z,48
2019-04-04T00:53:06.678Z,49
2019-04-04T00:53:14.943Z,48
2019-04-04T00:53:17.347Z,49
2019-04-04T00:53:20.825Z,50
2019-04-04T00:53:25.392Z,49
2019-04-04T00:53:28.659Z,50
2019-04-04T00:53:32.127Z,49
2019-04-04T00:53:34.439Z,48
2019-04-04T00:53:37.998Z,49
2019-04-04T00:53:42.694Z,48
2019-04-04T00:53:48.766Z,49
2019-04-04T00:53:50.018Z,50
2019-04-04T00:53:53.551Z,48
2019-04-04T00:53:55.908Z,49
2019-04-04T00:53:59.417Z,51
2019-04-04T00:54:01.710Z,50
2019-04-04T00:54:04.171Z,49
2019-04-04T00:54:07.698Z,50
2019-04-04T00:54:17.391Z,49
2019-04-04T00:54:21.004Z,48
2019-04-04T00:54:26.125Z,47
2019-04-04T00:54:33.924Z,46
2019-04-04T00:54:35.191Z,47
2019-04-04T00:54:41.032Z,48
2019-04-04T00:54:47.032Z,50
2019-04-04T00:54:49.413Z,51
2019-04-04T00:54:55.329Z,50
2019-04-04T00:55:02.254Z,49
2019-04-04T00:55:04.646Z,48
2019-04-04T00:55:05.860Z,49
2019-04-04T00:55:17.950Z,50
2019-04-04T00:55:20.300Z,53
2019-04-04T00:55:23.713Z,54
2019-04-04T00:55:26.250Z,53
2019-04-04T00:55:30.954Z,52
2019-04-04T00:55:34.391Z,51
2019-04-04T00:55:47.875Z,50
2019-04-04T00:55:51.427Z,49
2019-04-04T00:55:53.862Z,48
2019-04-04T00:55:57.785Z,49
2019-04-04T00:56:03.595Z,50
2019-04-04T00:56:08.067Z,51
2019-04-04T00:56:13.788Z,50
2019-04-04T00:56:18.974Z,51
2019-04-04T00:56:21.351Z,50
2019-04-04T00:56:24.843Z,51
2019-04-04T00:56:27.171Z,50
2019-04-04T00:56:29.487Z,51
2019-04-04T00:56:38.619Z,50
2019-04-04T00:56:49.703Z,51
2019-04-04T00:56:56.589Z,53
2019-04-04T00:57:00.103Z,52
2019-04-04T00:57:03.679Z,51
2019-04-04T00:57:08.165Z,52
2019-04-04T00:57:12.732Z,51
2019-04-04T00:57:23.138Z,50
2019-04-04T00:57:25.478Z,51
2019-04-04T00:57:31.232Z,52
2019-04-04T00:57:34.709Z,50
2019-04-04T00:57:37.027Z,51
2019-04-04T00:57:38.204Z,50
2019-04-04T00:57:40.455Z,52
2019-04-04T00:57:43.937Z,53
2019-04-04T00:57:46.380Z,52
2019-04-04T00:57:51.506Z,51
2019-04-04T00:57:58.672Z,50
2019-04-04T00:58:02.169Z,49
2019-04-04T00:58:06.847Z,50
2019-04-04T00:58:10.334Z,49
2019-04-04T00:58:13.836Z,50
2019-04-04T00:58:20.788Z,51
2019-04-04T00:58:24.867Z,48
2019-04-04T00:58:35.304Z,49
2019-04-04T00:58:38.697Z,50
2019-04-04T00:58:41.019Z,49